03:05
Airports
History
Links
Donate
Help me keep this website running!
Information on this page is community maintained and may be outdated or inaccurate and is intended for simulator navigating and reference only!
Always use approved charts for navigating.
EGJJ
Jersey
Jersey (EGJJ)
Saint Peter, St Peter,
(C)
Lat/Lng:49° 12' 28.67" N / 2° 11' 43.06" W
49.207964 / -2.195294
Elevation:277'ft 84mMSL
ID / ICAO:EGJJ
Runways:1
Longest:(09-27) 1,705.9m 5,597ft Asphalt
Controlled:Yes
Distance To
Airport ID:
Airport Radio Frequencies
Jersey Information: 129.72
Ground: 121.9
Tower: 119.45
Approach: 120.3
Nearby VORs <50NM
Nearby NDBs
METARUpdated 08-30-16 02:50 GMT
Altimeter: 30.27
Visibility: 2.5 statute miles
Wind: 3 knots (140°)
Temp: 13°c 55°f
Humidity: 100.0%

METAR: EGJJ 300250Z 14003KT 4000 MIFG FEW002 13/13 Q1025 TEMPO 0800 SCT000

(Powered by phpweather)
Runway 09 / 27
Dimensions:1705.9 x 46m 5597' x 151'ft
Surface:Asphalt
Edge Lights:High intensity
Runway 09 [A]Runway 27 [B]
Heading:082°TH 262°TH
Lat:
Lng:
49° 12' 25.18"N
2° 12' 24.95"W
49° 12' 32.16"N
2° 11' 1.17"W
ALS:CalvertCalvert ILS Cat II
TDZ:Yes, lighted
Google Map
Nearby Airports
4 Portbail 23.4 NM
5022 ENE 67°
(C) Guernsey 24.1 NM
EGJB (WX) NW 310°
(C) Lessay 31.2 NM
LFOM E 90°
4 Vauville 33.1 NM
LFAU NNE 29°
(C) Alderney 34.5 NM
EGJA N 358°
(C) Granville 36.4 NM
LFRF SE 128°
(C) Base ULM 42.2 NM
3559 SSE 159°
VFR Chart
Flight Planning at SkyVector.com